createdAt,value
2018-08-30T00:00:26.291Z,58.69
2018-08-30T00:01:25.967Z,58.80
2018-08-30T00:02:25.957Z,58.59
2018-08-30T00:03:25.961Z,58.49
2018-08-30T00:04:25.937Z,58.59
2018-08-30T00:05:26.020Z,58.47
2018-08-30T00:06:26.517Z,58.80
2018-08-30T00:07:25.161Z,58.59
2018-08-30T00:08:26.303Z,58.59
2018-08-30T00:09:25.898Z,58.39
2018-08-30T00:10:25.910Z,58.69
2018-08-30T00:11:26.036Z,58.59
2018-08-30T00:12:25.952Z,58.32
2018-08-30T00:13:25.971Z,58.29
2018-08-30T00:14:25.950Z,59.39
2018-08-30T00:15:26.223Z,59.12
2018-08-30T00:16:25.809Z,59.12
2018-08-30T00:17:25.794Z,58.99
2018-08-30T00:18:25.882Z,59.12
2018-08-30T00:19:25.988Z,59.12
2018-08-30T00:20:25.808Z,59.02
2018-08-30T00:21:24.785Z,59.02
2018-08-30T00:22:25.758Z,58.09
2018-08-30T00:23:25.994Z,58.09
2018-08-30T00:24:25.984Z,58.29
2018-08-30T00:25:25.742Z,58.29
2018-08-30T00:26:26.165Z,58.32
2018-08-30T00:27:25.689Z,58.82
2018-08-30T00:28:25.679Z,59.02
2018-08-30T00:29:25.667Z,59.22
2018-08-30T00:30:25.798Z,59.59
2018-08-30T00:31:24.934Z,59.62
2018-08-30T00:32:25.668Z,59.72
2018-08-30T00:33:25.703Z,59.82
2018-08-30T00:34:25.615Z,59.72
2018-08-30T00:35:25.685Z,59.72
2018-08-30T00:36:24.873Z,60.12
2018-08-30T00:37:25.861Z,59.72
2018-08-30T00:38:25.648Z,59.82
2018-08-30T00:39:25.661Z,60.12
2018-08-30T00:40:25.947Z,60.02
2018-08-30T00:41:25.629Z,60.12
2018-08-30T00:42:25.532Z,60.72
2018-08-30T00:43:25.522Z,60.22
2018-08-30T00:44:25.510Z,60.62
2018-08-30T00:45:25.525Z,60.72
2018-08-30T00:46:24.488Z,60.72
2018-08-30T00:47:25.576Z,60.82
2018-08-30T00:48:25.465Z,60.35
2018-08-30T00:49:24.609Z,60.35
2018-08-30T00:50:24.443Z,60.62
2018-08-30T00:51:24.480Z,60.45
2018-08-30T00:52:25.431Z,60.62
2018-08-30T00:53:25.414Z,60.32
2018-08-30T00:54:25.413Z,60.52
2018-08-30T00:55:25.401Z,60.42
2018-08-30T00:56:25.413Z,60.65
2018-08-30T00:57:25.819Z,60.65
2018-08-30T00:58:25.446Z,60.72
2018-08-30T00:59:25.884Z,60.75
2018-08-30T01:00:25.614Z,61.55
2018-08-30T01:01:25.432Z,61.65
2018-08-30T01:02:25.315Z,61.05
2018-08-30T01:03:24.317Z,61.45
2018-08-30T01:04:25.294Z,61.35
2018-08-30T01:05:25.282Z,61.45
2018-08-30T01:06:25.385Z,60.95
2018-08-30T01:07:25.273Z,60.95
2018-08-30T01:08:25.250Z,61.58
2018-08-30T01:09:25.249Z,61.28
2018-08-30T01:10:25.230Z,61.05
2018-08-30T01:11:25.227Z,61.68
2018-08-30T01:12:25.256Z,60.85
2018-08-30T01:13:25.202Z,61.45
2018-08-30T01:14:25.189Z,61.55
2018-08-30T01:15:25.181Z,60.95
2018-08-30T01:16:25.569Z,61.58
2018-08-30T01:17:25.238Z,61.08
2018-08-30T01:18:25.149Z,60.98
2018-08-30T01:19:25.413Z,61.08
2018-08-30T01:20:25.230Z,61.08
2018-08-30T01:21:25.193Z,61.05
2018-08-30T01:22:25.400Z,60.88
2018-08-30T01:23:25.091Z,61.45
2018-08-30T01:24:25.164Z,60.95
2018-08-30T01:25:25.348Z,60.78
2018-08-30T01:26:25.179Z,61.08
2018-08-30T01:27:25.202Z,60.95
2018-08-30T01:28:25.056Z,60.95
2018-08-30T01:29:25.028Z,61.05
2018-08-30T01:30:25.285Z,61.18
2018-08-30T01:31:24.005Z,60.95
2018-08-30T01:32:25.024Z,60.75
2018-08-30T01:33:24.993Z,61.08
2018-08-30T01:34:25.250Z,60.75
2018-08-30T01:35:25.086Z,60.75
2018-08-30T01:36:24.952Z,60.45
2018-08-30T01:37:24.981Z,60.65
2018-08-30T01:38:24.939Z,60.65
2018-08-30T01:39:25.009Z,60.45
2018-08-30T01:40:25.017Z,60.45
2018-08-30T01:41:25.426Z,60.58
2018-08-30T01:42:24.923Z,60.65
2018-08-30T01:43:23.895Z,60.68
2018-08-30T01:44:24.866Z,60.58
2018-08-30T01:45:24.875Z,60.75
2018-08-30T01:46:24.887Z,60.65
2018-08-30T01:47:24.928Z,60.35
2018-08-30T01:48:24.840Z,60.45
2018-08-30T01:49:24.834Z,60.78
2018-08-30T01:50:24.867Z,60.75
2018-08-30T01:51:24.804Z,60.75
2018-08-30T01:52:25.078Z,60.85
2018-08-30T01:53:24.782Z,60.85
2018-08-30T01:54:24.757Z,60.75
2018-08-30T01:55:25.382Z,60.75
2018-08-30T01:56:23.754Z,60.75
2018-08-30T01:57:25.034Z,60.48
2018-08-30T01:58:24.728Z,60.48
2018-08-30T01:59:23.733Z,60.78
2018-08-30T02:00:24.695Z,60.48
2018-08-30T02:01:24.956Z,60.38
2018-08-30T02:02:24.964Z,60.58
2018-08-30T02:03:24.789Z,60.28
2018-08-30T02:04:24.655Z,60.38
2018-08-30T02:05:24.740Z,60.38
2018-08-30T02:06:24.631Z,60.68
2018-08-30T02:07:24.825Z,60.28
2018-08-30T02:08:24.612Z,60.38
2018-08-30T02:09:24.901Z,60.38
2018-08-30T02:10:24.593Z,60.38
2018-08-30T02:11:24.592Z,60.35
2018-08-30T02:12:23.567Z,60.38
2018-08-30T02:13:24.728Z,60.58
2018-08-30T02:14:24.557Z,60.55
2018-08-30T02:15:24.628Z,60.65
2018-08-30T02:16:24.528Z,60.48
2018-08-30T02:17:24.514Z,60.35
2018-08-30T02:18:24.554Z,60.78
2018-08-30T02:19:24.497Z,60.88
2018-08-30T02:20:24.599Z,60.98
2018-08-30T02:21:24.957Z,60.98
2018-08-30T02:22:24.895Z,60.78
2018-08-30T02:23:24.491Z,60.78
2018-08-30T02:24:24.443Z,60.48
2018-08-30T02:25:23.493Z,60.75
2018-08-30T02:26:24.560Z,60.88
2018-08-30T02:27:24.417Z,60.98
2018-08-30T02:28:24.441Z,60.78
2018-08-30T02:29:24.505Z,60.68
2018-08-30T02:30:23.705Z,60.88
2018-08-30T02:31:24.390Z,60.78
2018-08-30T02:32:24.354Z,60.78
2018-08-30T02:33:24.646Z,60.78
2018-08-30T02:34:24.742Z,60.68
2018-08-30T02:35:24.325Z,60.88
2018-08-30T02:36:24.323Z,60.58
2018-08-30T02:37:24.410Z,60.88
2018-08-30T02:38:23.295Z,60.48
2018-08-30T02:39:24.311Z,60.78
2018-08-30T02:40:24.646Z,60.68
2018-08-30T02:41:24.297Z,60.58
2018-08-30T02:42:23.372Z,60.38
2018-08-30T02:43:24.261Z,60.28
2018-08-30T02:44:24.255Z,60.78
2018-08-30T02:45:23.606Z,60.38
2018-08-30T02:46:24.338Z,60.38
2018-08-30T02:47:24.250Z,60.78
2018-08-30T02:48:24.290Z,60.68
2018-08-30T02:49:23.459Z,60.71
2018-08-30T02:50:24.318Z,60.91
2018-08-30T02:51:24.277Z,60.41
2018-08-30T02:52:24.397Z,61.01
2018-08-30T02:53:24.157Z,60.78
2018-08-30T02:54:24.130Z,60.81
2018-08-30T02:55:24.404Z,60.98
2018-08-30T02:56:24.121Z,60.41
2018-08-30T02:57:24.366Z,60.61
2018-08-30T02:58:24.155Z,60.31
2018-08-30T02:59:24.182Z,60.41
2018-08-30T03:00:24.651Z,60.51
2018-08-30T03:01:23.058Z,60.28
2018-08-30T03:02:24.038Z,60.41
2018-08-30T03:03:24.045Z,60.38
2018-08-30T03:04:24.027Z,60.41
2018-08-30T03:05:24.151Z,60.38
2018-08-30T03:06:23.997Z,60.78
2018-08-30T03:07:23.990Z,61.01
2018-08-30T03:08:24.237Z,60.91
2018-08-30T03:09:23.971Z,60.91
2018-08-30T03:10:24.242Z,60.41
2018-08-30T03:11:24.245Z,60.58
2018-08-30T03:12:23.930Z,60.41
2018-08-30T03:13:23.918Z,60.51
2018-08-30T03:14:23.920Z,60.61
2018-08-30T03:15:24.047Z,60.41
2018-08-30T03:16:23.891Z,60.61
2018-08-30T03:17:23.897Z,60.31
2018-08-30T03:18:23.867Z,60.41
2018-08-30T03:19:23.310Z,60.31
2018-08-30T03:20:23.876Z,60.51
2018-08-30T03:21:23.999Z,60.68
2018-08-30T03:22:23.829Z,60.51
2018-08-30T03:23:23.814Z,60.61
2018-08-30T03:24:23.858Z,60.91
2018-08-30T03:25:24.094Z,60.51
2018-08-30T03:26:24.018Z,60.81
2018-08-30T03:27:22.826Z,60.51
2018-08-30T03:28:24.018Z,60.38
2018-08-30T03:29:22.759Z,60.31
2018-08-30T03:30:24.521Z,60.41
2018-08-30T03:31:23.755Z,60.41
2018-08-30T03:32:23.719Z,60.61
2018-08-30T03:33:23.714Z,60.81
2018-08-30T03:34:23.715Z,60.61
2018-08-30T03:35:23.701Z,60.58
2018-08-30T03:36:23.722Z,60.51
2018-08-30T03:37:23.670Z,60.71
2018-08-30T03:38:23.760Z,60.41
2018-08-30T03:39:23.719Z,60.41
2018-08-30T03:40:23.914Z,60.41
2018-08-30T03:41:23.734Z,60.41
2018-08-30T03:42:23.704Z,60.41
2018-08-30T03:43:23.593Z,60.81
2018-08-30T03:44:23.588Z,60.31
2018-08-30T03:45:23.588Z,60.51
2018-08-30T03:46:23.598Z,61.01
2018-08-30T03:47:22.571Z,60.61
2018-08-30T03:48:23.542Z,60.41
2018-08-30T03:49:23.909Z,60.51
2018-08-30T03:50:23.051Z,60.61
2018-08-30T03:51:23.707Z,60.71
2018-08-30T03:52:22.531Z,60.61
2018-08-30T03:53:23.761Z,60.41
2018-08-30T03:54:23.495Z,60.51
2018-08-30T03:55:23.798Z,60.51
2018-08-30T03:56:23.493Z,60.51
2018-08-30T03:57:23.464Z,60.71
2018-08-30T03:58:23.436Z,60.41
2018-08-30T03:59:23.428Z,60.31
2018-08-30T04:00:22.707Z,61.01
2018-08-30T04:01:23.564Z,60.41
2018-08-30T04:02:23.438Z,60.71
2018-08-30T04:03:23.507Z,60.81
2018-08-30T04:04:23.488Z,61.11
2018-08-30T04:05:22.365Z,60.81
2018-08-30T04:06:23.485Z,60.81
2018-08-30T04:07:23.615Z,61.01
2018-08-30T04:08:23.330Z,60.61
2018-08-30T04:09:23.939Z,61.11
2018-08-30T04:10:23.332Z,60.81
2018-08-30T04:11:23.295Z,60.61
2018-08-30T04:12:23.298Z,60.71
2018-08-30T04:13:23.552Z,60.41
2018-08-30T04:14:23.804Z,60.41
2018-08-30T04:15:23.431Z,60.51
2018-08-30T04:16:23.253Z,60.41
2018-08-30T04:17:23.266Z,60.41
2018-08-30T04:18:23.223Z,60.41
2018-08-30T04:19:23.580Z,60.71
2018-08-30T04:20:23.229Z,60.61
2018-08-30T04:21:23.296Z,60.51
2018-08-30T04:22:23.314Z,60.51
2018-08-30T04:23:23.168Z,60.51
2018-08-30T04:24:23.177Z,60.61
2018-08-30T04:25:23.178Z,60.51
2018-08-30T04:26:23.208Z,60.51
2018-08-30T04:27:22.398Z,60.41
2018-08-30T04:28:23.447Z,60.61
2018-08-30T04:29:23.221Z,60.41
2018-08-30T04:30:23.106Z,60.51
2018-08-30T04:31:23.318Z,60.61
2018-08-30T04:32:23.102Z,60.41
2018-08-30T04:33:23.181Z,60.51
2018-08-30T04:34:23.061Z,60.31
2018-08-30T04:35:23.194Z,60.81
2018-08-30T04:36:23.294Z,60.51
2018-08-30T04:37:23.080Z,60.71
2018-08-30T04:38:23.287Z,60.81
2018-08-30T04:39:23.079Z,60.71
2018-08-30T04:40:23.120Z,60.91
2018-08-30T04:41:22.975Z,60.91
2018-08-30T04:42:23.235Z,60.61
2018-08-30T04:43:22.967Z,60.21
2018-08-30T04:44:23.231Z,60.61
2018-08-30T04:45:23.089Z,60.18
2018-08-30T04:46:22.925Z,60.71
2018-08-30T04:47:22.929Z,60.71
2018-08-30T04:48:22.900Z,60.51
2018-08-30T04:49:21.903Z,60.81
2018-08-30T04:50:21.886Z,60.71
2018-08-30T04:51:22.866Z,60.81
2018-08-30T04:52:22.872Z,60.81
2018-08-30T04:53:22.852Z,60.81
2018-08-30T04:54:23.137Z,60.81
2018-08-30T04:55:23.042Z,60.81
2018-08-30T04:56:22.843Z,60.71
2018-08-30T04:57:22.828Z,60.91
2018-08-30T04:58:22.795Z,60.91
2018-08-30T04:59:22.790Z,60.91
2018-08-30T05:00:22.786Z,60.71
2018-08-30T05:01:22.779Z,60.71
2018-08-30T05:02:22.767Z,60.11
2018-08-30T05:03:22.747Z,60.21
2018-08-30T05:04:22.725Z,60.21
2018-08-30T05:05:21.717Z,60.11
2018-08-30T05:06:22.908Z,60.21
2018-08-30T05:07:22.769Z,60.21
2018-08-30T05:08:23.349Z,60.71
2018-08-30T05:09:22.690Z,60.11
2018-08-30T05:10:22.682Z,60.21
2018-08-30T05:11:22.653Z,60.41
2018-08-30T05:12:21.760Z,60.18
2018-08-30T05:13:22.699Z,60.31
2018-08-30T05:14:22.653Z,60.18
2018-08-30T05:15:22.630Z,60.18
2018-08-30T05:16:23.070Z,59.98
2018-08-30T05:17:22.600Z,60.08
2018-08-30T05:18:22.610Z,59.98
2018-08-30T05:19:22.686Z,60.08
2018-08-30T05:20:22.582Z,59.68
2018-08-30T05:21:22.696Z,59.88
2018-08-30T05:22:22.657Z,59.78
2018-08-30T05:23:21.866Z,59.58
2018-08-30T05:24:22.557Z,59.98
2018-08-30T05:25:22.551Z,59.88
2018-08-30T05:26:22.525Z,59.78
2018-08-30T05:27:22.485Z,59.78
2018-08-30T05:28:21.602Z,59.68
2018-08-30T05:29:22.474Z,59.68
2018-08-30T05:30:22.590Z,59.78
2018-08-30T05:31:22.823Z,59.98
2018-08-30T05:32:22.708Z,59.78
2018-08-30T05:33:22.543Z,59.58
2018-08-30T05:34:22.433Z,59.98
2018-08-30T05:35:22.428Z,59.88
2018-08-30T05:38:01.939Z,60.08
2018-08-30T05:39:02.017Z,60.08
2018-08-30T05:40:02.931Z,60.31
2018-08-30T05:41:03.106Z,60.08
2018-08-30T05:42:02.823Z,60.18
2018-08-30T05:43:02.713Z,60.21
2018-08-30T05:44:02.951Z,60.31
2018-08-30T05:45:02.959Z,60.41
2018-08-30T05:46:02.770Z,60.18
2018-08-30T05:47:02.899Z,60.21
2018-08-30T05:48:02.778Z,60.61
2018-08-30T05:49:02.620Z,60.71
2018-08-30T05:50:02.628Z,60.91
2018-08-30T05:51:03.591Z,60.81
2018-08-30T05:52:02.963Z,60.61
2018-08-30T05:53:02.598Z,60.61
2018-08-30T05:54:02.584Z,60.81
2018-08-30T05:55:02.695Z,60.61
2018-08-30T05:56:02.677Z,60.51
2018-08-30T05:57:02.884Z,60.61
2018-08-30T05:58:02.660Z,60.51
2018-08-30T05:59:02.769Z,60.51
2018-08-30T06:00:02.971Z,60.61
2018-08-30T06:01:02.788Z,60.81
2018-08-30T06:02:02.503Z,61.01
2018-08-30T06:03:02.466Z,60.81
2018-08-30T06:04:03.054Z,60.71
2018-08-30T06:05:02.458Z,60.51
2018-08-30T06:06:02.501Z,61.01
2018-08-30T06:07:02.710Z,61.01
2018-08-30T06:08:02.681Z,61.11
2018-08-30T06:09:02.401Z,60.81
2018-08-30T06:10:02.683Z,61.94
2018-08-30T06:11:02.429Z,61.54
2018-08-30T06:12:02.639Z,62.14
2018-08-30T06:13:02.429Z,62.14
2018-08-30T06:14:02.372Z,61.34
2018-08-30T06:15:02.361Z,61.84
2018-08-30T06:16:02.616Z,61.64
2018-08-30T06:17:02.325Z,61.21
2018-08-30T06:18:02.668Z,61.31
2018-08-30T06:19:02.312Z,61.31
2018-08-30T06:20:02.311Z,61.61
2018-08-30T06:21:02.516Z,61.41
2018-08-30T06:22:02.319Z,61.11
2018-08-30T06:23:02.816Z,61.41
2018-08-30T06:24:02.249Z,61.51
2018-08-30T06:25:02.515Z,61.11
2018-08-30T06:26:02.351Z,60.61
2018-08-30T06:27:02.235Z,60.38
2018-08-30T06:28:02.457Z,60.98
2018-08-30T06:29:02.452Z,60.81
2018-08-30T06:30:02.261Z,61.01
2018-08-30T06:31:02.177Z,60.78
2018-08-30T06:32:02.556Z,60.78
2018-08-30T06:33:02.152Z,60.68
2018-08-30T06:34:02.153Z,60.18
2018-08-30T06:35:02.385Z,60.08
2018-08-30T06:36:02.124Z,59.88
2018-08-30T06:37:02.247Z,59.78
2018-08-30T06:38:02.108Z,59.68
2018-08-30T06:39:04.471Z,59.78
2018-08-30T06:40:02.204Z,59.78
2018-08-30T06:41:02.184Z,59.98
2018-08-30T06:42:02.463Z,59.78
2018-08-30T06:43:02.041Z,59.78
2018-08-30T06:44:02.129Z,59.98
2018-08-30T06:45:02.041Z,59.58
2018-08-30T06:46:02.050Z,59.78
2018-08-30T06:47:02.110Z,59.78
2018-08-30T06:48:01.988Z,59.88
2018-08-30T06:49:03.121Z,59.68
2018-08-30T06:50:01.993Z,59.78
2018-08-30T06:51:02.328Z,59.78
2018-08-30T06:52:01.972Z,59.78
2018-08-30T06:53:02.332Z,59.78
2018-08-30T06:54:02.042Z,59.78
2018-08-30T06:55:02.004Z,59.68
2018-08-30T06:56:02.047Z,59.48
2018-08-30T06:57:03.107Z,59.58
2018-08-30T06:58:01.985Z,59.38
2018-08-30T06:59:01.890Z,59.28
2018-08-30T07:00:01.919Z,58.85
2018-08-30T07:01:02.149Z,58.25
2018-08-30T07:02:02.024Z,58.35
2018-08-30T07:03:01.810Z,58.25
2018-08-30T07:04:01.891Z,58.65
2018-08-30T07:05:01.802Z,58.45
2018-08-30T07:06:01.797Z,58.65
2018-08-30T07:07:01.060Z,58.65
2018-08-30T07:08:01.816Z,58.05
2018-08-30T07:09:01.752Z,58.55
2018-08-30T07:10:01.813Z,59.25
2018-08-30T07:11:02.304Z,58.68
2018-08-30T07:12:01.760Z,58.35
2018-08-30T07:13:01.748Z,59.28
2018-08-30T07:14:05.616Z,59.28
2018-08-30T07:15:02.023Z,59.68
2018-08-30T07:16:01.805Z,59.28
2018-08-30T07:17:01.802Z,59.38
2018-08-30T07:18:01.703Z,59.58
2018-08-30T07:19:01.943Z,59.68
2018-08-30T07:20:01.719Z,59.78
2018-08-30T07:21:03.778Z,59.48
2018-08-30T07:22:01.748Z,60.01
2018-08-30T07:23:01.741Z,59.78
2018-08-30T07:24:01.604Z,59.88
2018-08-30T07:25:01.616Z,60.08
2018-08-30T07:26:01.843Z,59.61
2018-08-30T07:27:01.578Z,59.88
2018-08-30T07:28:01.560Z,59.78
2018-08-30T07:29:01.674Z,59.68
2018-08-30T07:30:02.206Z,59.78
2018-08-30T07:31:06.643Z,60.11
2018-08-30T07:32:01.976Z,59.88
2018-08-30T07:33:01.998Z,60.01
2018-08-30T07:34:01.502Z,60.21
2018-08-30T07:35:01.608Z,60.31
2018-08-30T07:36:01.513Z,60.21
2018-08-30T07:37:01.461Z,60.21
2018-08-30T07:38:02.228Z,60.91
2018-08-30T07:39:01.637Z,60.81
2018-08-30T07:40:01.533Z,61.01
2018-08-30T07:41:00.504Z,60.81
2018-08-30T07:42:02.434Z,60.91
2018-08-30T07:43:01.602Z,60.81
2018-08-30T07:44:01.721Z,60.81
2018-08-30T07:45:01.372Z,60.71
2018-08-30T07:46:01.660Z,60.71
2018-08-30T07:47:01.373Z,60.58
2018-08-30T07:48:01.744Z,60.91
2018-08-30T07:49:01.438Z,60.71
2018-08-30T07:50:01.417Z,60.61
2018-08-30T07:51:01.765Z,60.71
2018-08-30T07:52:01.449Z,60.78
2018-08-30T07:53:01.565Z,60.68
2018-08-30T07:54:01.281Z,60.68
2018-08-30T07:55:01.289Z,60.68
2018-08-30T07:56:01.259Z,60.68
2018-08-30T07:57:01.415Z,60.58
2018-08-30T07:58:01.485Z,60.78
2018-08-30T07:59:01.579Z,60.68
2018-08-30T08:00:01.401Z,60.58
2018-08-30T08:01:01.342Z,60.88
2018-08-30T08:02:01.557Z,60.18
2018-08-30T08:03:01.162Z,60.18
2018-08-30T08:04:01.277Z,60.08
2018-08-30T08:05:01.629Z,60.28
2018-08-30T08:06:01.491Z,59.98
2018-08-30T08:07:01.473Z,60.08
2018-08-30T08:08:01.116Z,60.18
2018-08-30T08:09:01.541Z,59.98
2018-08-30T08:10:01.222Z,59.88
2018-08-30T08:11:01.557Z,59.58
2018-08-30T08:12:01.314Z,59.65
2018-08-30T08:13:01.348Z,59.85
2018-08-30T08:14:01.091Z,59.65
2018-08-30T08:15:01.202Z,59.65
2018-08-30T08:16:01.054Z,59.35
2018-08-30T08:17:01.148Z,59.55
2018-08-30T08:18:01.138Z,59.35
2018-08-30T08:19:01.167Z,58.85
2018-08-30T08:20:03.452Z,58.32
2018-08-30T08:21:01.098Z,58.22
2018-08-30T08:22:01.375Z,58.32
2018-08-30T08:23:01.153Z,58.82
2018-08-30T08:24:01.098Z,58.52
2018-08-30T08:25:01.068Z,58.72
2018-08-30T08:26:00.909Z,58.52
2018-08-30T08:27:02.538Z,58.62
2018-08-30T08:28:01.020Z,58.02
2018-08-30T08:29:00.899Z,57.92
2018-08-30T08:30:00.867Z,58.12
2018-08-30T08:31:01.227Z,58.52
2018-08-30T08:32:00.977Z,57.72
2018-08-30T08:33:01.031Z,57.89
2018-08-30T08:34:01.025Z,57.92
2018-08-30T08:35:00.861Z,57.92
2018-08-30T08:36:00.943Z,58.09
2018-08-30T08:37:00.839Z,57.92
2018-08-30T08:38:00.790Z,58.09
2018-08-30T08:39:01.159Z,57.92
2018-08-30T08:40:00.856Z,57.39
2018-08-30T08:41:00.760Z,57.39
2018-08-30T08:42:00.750Z,57.29
2018-08-30T08:43:00.801Z,57.29
2018-08-30T08:44:00.740Z,57.09
2018-08-30T08:45:01.378Z,56.89
2018-08-30T08:46:00.717Z,56.70
2018-08-30T08:47:00.823Z,56.89
2018-08-30T08:48:00.804Z,56.16
2018-08-30T08:49:00.756Z,55.87
2018-08-30T08:50:00.978Z,56.27
2018-08-30T08:51:01.224Z,56.16
2018-08-30T08:52:00.662Z,54.84
2018-08-30T08:53:00.769Z,55.74
2018-08-30T08:54:00.692Z,55.64
2018-08-30T08:55:00.598Z,55.24
2018-08-30T08:56:00.777Z,54.54
2018-08-30T08:57:00.604Z,54.54
2018-08-30T08:58:00.608Z,55.04
2018-08-30T08:59:00.711Z,55.14
2018-08-30T09:00:00.693Z,55.14
2018-08-30T09:01:00.722Z,53.74
2018-08-30T09:02:01.145Z,53.64
2018-08-30T09:03:00.609Z,53.61
2018-08-30T09:04:00.521Z,53.61
2018-08-30T09:05:00.593Z,53.42
2018-08-30T09:06:00.772Z,53.31
2018-08-30T09:07:00.556Z,52.92
2018-08-30T09:08:00.729Z,52.82
2018-08-30T09:09:00.708Z,53.12
2018-08-30T09:10:00.429Z,53.42
2018-08-30T09:11:00.699Z,52.89
2018-08-30T09:12:00.426Z,52.59
2018-08-30T09:13:00.413Z,52.79
2018-08-30T09:14:00.565Z,52.12
2018-08-30T09:15:00.394Z,52.39
2018-08-30T09:16:00.672Z,52.09
2018-08-30T09:17:00.553Z,51.70
2018-08-30T09:18:00.658Z,52.29
2018-08-30T09:19:00.459Z,52.39
2018-08-30T09:20:00.598Z,51.50
2018-08-30T09:21:00.378Z,51.89
2018-08-30T09:22:00.397Z,52.09
2018-08-30T09:23:00.313Z,52.09
2018-08-30T09:24:02.209Z,52.09
2018-08-30T09:25:00.560Z,51.70
2018-08-30T09:26:00.262Z,51.50
2018-08-30T09:27:00.259Z,52.09
2018-08-30T09:28:00.283Z,51.59
2018-08-30T09:29:00.296Z,51.07
2018-08-30T09:30:00.285Z,50.79
2018-08-30T09:31:00.524Z,50.49
2018-08-30T09:32:00.401Z,50.60
2018-08-30T09:33:00.564Z,50.70
2018-08-30T09:34:00.779Z,50.40
2018-08-30T09:35:00.173Z,50.40
2018-08-30T09:36:00.441Z,50.49
2018-08-30T09:37:00.354Z,50.60
2018-08-30T09:38:00.150Z,50.79
2018-08-30T09:39:00.185Z,50.49
2018-08-30T09:40:05.999Z,50.10
2018-08-30T09:41:00.124Z,50.49
2018-08-30T09:42:00.379Z,50.60
2018-08-30T09:43:00.088Z,50.22
2018-08-30T09:44:00.076Z,50.60
2018-08-30T09:45:00.059Z,50.20
2018-08-30T09:46:00.318Z,50.10
2018-08-30T09:47:00.133Z,50.30
2018-08-30T09:48:00.044Z,50.62
2018-08-30T09:49:00.296Z,50.49
2018-08-30T09:50:00.001Z,50.60
2018-08-30T09:50:59.999Z,50.70
2018-08-30T09:52:00.293Z,50.10
2018-08-30T09:53:00.239Z,50.40
2018-08-30T09:53:59.996Z,50.49
2018-08-30T09:55:00.248Z,49.90
2018-08-30T09:55:59.968Z,50.49
2018-08-30T09:56:59.987Z,49.77
2018-08-30T09:58:00.201Z,49.57
2018-08-30T09:58:59.958Z,49.50
2018-08-30T09:59:59.999Z,48.50
2018-08-30T10:01:00.057Z,48.97
2018-08-30T10:01:59.896Z,48.88
2018-08-30T10:02:59.872Z,48.18
2018-08-30T10:03:59.900Z,49.18
2018-08-30T10:05:00.314Z,48.38
2018-08-30T10:05:59.828Z,48.48
2018-08-30T10:06:59.931Z,48.38
2018-08-30T10:07:59.823Z,48.68
2018-08-30T10:08:59.829Z,48.58
2018-08-30T10:09:59.870Z,48.48
2018-08-30T10:10:59.872Z,49.27
2018-08-30T10:11:59.846Z,48.68
2018-08-30T10:12:59.747Z,48.58
2018-08-30T10:13:59.907Z,48.48
2018-08-30T10:14:59.742Z,48.68
2018-08-30T10:15:59.836Z,48.65
2018-08-30T10:16:59.996Z,48.46
2018-08-30T10:17:59.740Z,49.15
2018-08-30T10:18:59.740Z,48.16
2018-08-30T10:19:59.690Z,48.16
2018-08-30T10:21:00.977Z,48.65
2018-08-30T10:21:59.761Z,48.35
2018-08-30T10:22:59.912Z,48.25
2018-08-30T10:23:59.710Z,48.05
2018-08-30T10:24:59.654Z,47.56
2018-08-30T10:25:59.683Z,47.86
2018-08-30T10:26:59.605Z,47.36
2018-08-30T10:27:59.685Z,47.66
2018-08-30T10:28:59.672Z,47.56
2018-08-30T10:29:59.826Z,47.26
2018-08-30T10:30:59.828Z,47.38
2018-08-30T10:31:59.941Z,47.26
2018-08-30T10:32:59.538Z,47.36
2018-08-30T10:34:00.135Z,47.26
2018-08-30T10:34:59.515Z,47.66
2018-08-30T10:36:00.354Z,47.36
2018-08-30T10:36:59.916Z,46.76
2018-08-30T10:37:59.896Z,46.36
2018-08-30T10:38:59.817Z,46.56
2018-08-30T10:39:59.462Z,46.96
2018-08-30T10:40:59.477Z,46.86
2018-08-30T10:41:59.800Z,46.34
2018-08-30T10:42:59.897Z,46.56
2018-08-30T10:43:59.444Z,47.03
2018-08-30T10:44:59.725Z,46.56
2018-08-30T10:45:59.387Z,46.16
2018-08-30T10:46:59.504Z,46.86
2018-08-30T10:47:59.646Z,46.66
2018-08-30T10:48:59.372Z,46.56
2018-08-30T10:49:59.664Z,46.36
2018-08-30T10:50:59.692Z,46.86
2018-08-30T10:51:59.337Z,46.76
2018-08-30T10:52:59.440Z,46.76
2018-08-30T10:53:59.325Z,46.66
2018-08-30T10:54:59.362Z,45.47
2018-08-30T10:55:59.354Z,45.74
2018-08-30T10:56:59.269Z,45.44
2018-08-30T10:57:59.392Z,46.54
2018-08-30T10:58:59.962Z,46.06
2018-08-30T10:59:59.648Z,46.34
2018-08-30T11:00:59.628Z,45.94
2018-08-30T11:01:59.366Z,45.84
2018-08-30T11:02:59.373Z,45.64
2018-08-30T11:03:59.478Z,46.04
2018-08-30T11:04:59.215Z,45.84
2018-08-30T11:05:59.193Z,45.84
2018-08-30T11:06:59.195Z,44.94
2018-08-30T11:07:59.267Z,45.34
2018-08-30T11:08:59.409Z,44.74
2018-08-30T11:09:59.451Z,44.74
2018-08-30T11:10:59.128Z,44.35
2018-08-30T11:11:59.142Z,44.54
2018-08-30T11:12:59.373Z,43.55
2018-08-30T11:13:59.804Z,43.55
2018-08-30T11:14:59.224Z,43.65
2018-08-30T11:15:59.256Z,43.65
2018-08-30T11:16:59.069Z,43.55
2018-08-30T11:17:59.063Z,43.35
2018-08-30T11:18:59.173Z,43.75
2018-08-30T11:19:59.049Z,43.52
2018-08-30T11:20:59.146Z,44.24
2018-08-30T11:21:59.022Z,43.95
2018-08-30T11:23:00.369Z,44.35
2018-08-30T11:23:59.254Z,44.35
2018-08-30T11:24:59.250Z,44.05
2018-08-30T11:25:59.120Z,44.54
2018-08-30T11:26:58.951Z,44.24
2018-08-30T11:27:58.963Z,43.73
2018-08-30T11:28:58.996Z,42.73
2018-08-30T11:29:59.977Z,43.03
2018-08-30T11:30:59.453Z,43.13
2018-08-30T11:32:00.347Z,42.73
2018-08-30T11:32:59.015Z,43.03
2018-08-30T11:33:59.000Z,43.05
2018-08-30T11:34:59.338Z,43.15
2018-08-30T11:35:59.187Z,43.43
2018-08-30T11:36:58.851Z,42.93
2018-08-30T11:37:59.285Z,43.33
2018-08-30T11:38:59.000Z,43.03
2018-08-30T11:40:00.188Z,43.05
2018-08-30T11:40:58.942Z,43.33
2018-08-30T11:41:58.921Z,43.33
2018-08-30T11:42:58.778Z,43.23
2018-08-30T11:43:58.780Z,43.23
2018-08-30T11:45:00.031Z,43.43
2018-08-30T11:45:58.977Z,43.52
2018-08-30T11:46:58.728Z,42.83
2018-08-30T11:47:58.769Z,41.93
2018-08-30T11:48:58.735Z,41.63
2018-08-30T11:49:58.826Z,41.33
2018-08-30T11:50:59.365Z,41.33
2018-08-30T11:51:58.825Z,41.12
2018-08-30T11:52:57.835Z,41.03
2018-08-30T11:53:58.702Z,41.02
2018-08-30T11:54:58.673Z,40.04
2018-08-30T11:55:58.715Z,40.92
2018-08-30T11:56:58.996Z,39.92
2018-08-30T11:57:58.808Z,39.83
2018-08-30T11:58:58.742Z,39.92
2018-08-30T11:59:58.856Z,40.72
2018-08-30T12:00:58.733Z,39.72
2018-08-30T12:01:58.834Z,38.93
2018-08-30T12:02:58.976Z,39.03
2018-08-30T12:03:58.741Z,39.11
2018-08-30T12:04:58.649Z,39.11
2018-08-30T12:05:58.539Z,39.90
2018-08-30T12:06:59.369Z,40.40
2018-08-30T12:07:58.632Z,39.80
2018-08-30T12:08:58.531Z,40.30
2018-08-30T12:09:58.632Z,39.70
2018-08-30T12:10:59.039Z,40.00
2018-08-30T12:11:58.479Z,40.50
2018-08-30T12:12:58.850Z,40.90
2018-08-30T12:13:58.567Z,40.80
2018-08-30T12:14:58.575Z,39.80
2018-08-30T12:15:58.433Z,39.70
2018-08-30T12:16:58.524Z,39.80
2018-08-30T12:17:57.643Z,39.29
2018-08-30T12:18:58.937Z,39.61
2018-08-30T12:19:58.520Z,39.18
2018-08-30T12:20:58.396Z,39.18
2018-08-30T12:21:58.379Z,38.89
2018-08-30T12:22:58.391Z,38.59
2018-08-30T12:23:58.353Z,38.69
2018-08-30T12:24:58.863Z,38.39
2018-08-30T12:25:58.341Z,38.28
2018-08-30T12:26:58.323Z,38.69
2018-08-30T12:27:58.946Z,38.67
2018-08-30T12:28:58.462Z,39.18
2018-08-30T12:29:58.312Z,38.89
2018-08-30T12:30:58.458Z,38.49
2018-08-30T12:31:58.269Z,38.89
2018-08-30T12:32:58.471Z,38.97
2018-08-30T12:33:58.295Z,39.07
2018-08-30T12:34:58.333Z,39.39
2018-08-30T12:35:58.424Z,38.99
2018-08-30T12:36:58.237Z,38.89
2018-08-30T12:37:58.341Z,37.99
2018-08-30T12:38:58.276Z,38.37
2018-08-30T12:39:58.294Z,37.77
2018-08-30T12:40:58.163Z,37.98
2018-08-30T12:41:58.190Z,38.18
2018-08-30T12:42:58.381Z,38.18
2018-08-30T12:43:58.371Z,37.88
2018-08-30T12:44:58.140Z,38.18
2018-08-30T12:45:58.139Z,37.48
2018-08-30T12:46:59.024Z,37.68
2018-08-30T12:47:58.216Z,36.98
2018-08-30T12:48:58.186Z,37.28
2018-08-30T12:49:58.218Z,37.38
2018-08-30T12:50:58.309Z,37.28
2018-08-30T12:51:58.177Z,37.36
2018-08-30T12:52:58.177Z,37.28
2018-08-30T12:54:33.332Z,37.16